Port Wing, Wisconsin
Current Conditions -  °F | °C
As of 10:54 PM on Saturday 22 Nov 2014 (Local Time) from KTWM Reporting Station
Overcast Overcast  
Wind Chill: 32°   Ceiling: 800
Heat Index: 37°   Visibility: 7mi
Dew Point: 32°   Wind: 7mph
Humidity: 81%   Direction: 130°SE
Pressure: 29.55"   Gusts: NA
Location:  46.77°N, 91.39°W
Report Text: KTWM 230454Z AUTO 13006KT 7SM OVC008 03/00 A2955 RMK AO2
Loading
Personal Weather Stations






























Interactive Weather Map New forecast layout! Learn more

10-Day Weather Forecast

Advertisements
Track Severe Weather on mobile